Time;durP1;ratioP1;P1;durP2;ratioP2;P2;SDS_P1;SDS_P2;PMS_P1;PMS_P2;Temp;Humidity;BMP_temperature;BMP_pressure;BME280_temperature;BME280_humidity;BME280_pressure;Samples;Min_cycle;Max_cycle;Signal;HPM_P1;HPM_P2
2023/01/26 00:00:47;;;;;;;12.55;5.07;;;2.00;99.90;;;;;;5032279;28;20022;-71
2023/01/26 00:03:13;;;;;;;13.48;5.63;;;2.00;99.90;;;;;;5053979;22;20037;-69
2023/01/26 00:05:39;;;;;;;8.98;4.68;;;1.90;99.90;;;;;;4992817;28;20117;-70
2023/01/26 00:08:05;;;;;;;12.25;6.03;;;1.90;99.90;;;;;;4992055;28;20029;-70
2023/01/26 00:10:30;;;;;;;13.13;5.10;;;1.80;99.90;;;;;;4993294;28;20026;-70
2023/01/26 00:12:56;;;;;;;11.13;4.35;;;1.90;99.90;;;;;;4993757;28;20049;-70
2023/01/26 00:15:22;;;;;;;14.38;5.20;;;1.80;99.90;;;;;;4992884;28;20019;-70
2023/01/26 00:17:50;;;;;;;12.98;5.40;;;1.90;99.90;;;;;;4994170;28;20034;-70
2023/01/26 00:20:16;;;;;;;12.07;4.93;;;1.90;99.90;;;;;;4994171;28;20022;-70
2023/01/26 00:22:42;;;;;;;13.63;5.28;;;1.90;99.90;;;;;;4994124;28;20085;-70
2023/01/26 00:25:08;;;;;;;10.70;5.00;;;1.80;99.90;;;;;;4993279;28;20027;-70
2023/01/26 00:27:33;;;;;;;13.98;4.53;;;1.90;99.90;;;;;;4994213;28;20081;-69
2023/01/26 00:29:59;;;;;;;12.85;5.05;;;1.90;99.90;;;;;;4993155;28;20034;-69
2023/01/26 00:32:24;;;;;;;10.60;4.90;;;1.90;99.90;;;;;;4993838;28;20033;-70
2023/01/26 00:34:50;;;;;;;11.10;5.05;;;1.80;99.90;;;;;;4992941;28;20054;-70
2023/01/26 00:37:15;;;;;;;11.63;4.95;;;1.90;99.90;;;;;;4992534;28;20106;-70
2023/01/26 00:39:41;;;;;;;10.65;4.25;;;1.80;99.90;;;;;;4992940;28;20528;-71
2023/01/26 00:42:08;;;;;;;12.95;4.97;;;1.80;99.90;;;;;;4992240;28;20022;-71
2023/01/26 00:44:36;;;;;;;12.77;4.97;;;1.90;99.90;;;;;;4992828;28;20033;-71
2023/01/26 00:47:02;;;;;;;12.98;5.57;;;1.90;99.90;;;;;;4992313;28;20034;-71
2023/01/26 00:49:27;;;;;;;10.30;4.75;;;1.90;99.90;;;;;;4992255;28;20023;-71
2023/01/26 00:51:53;;;;;;;9.05;4.43;;;1.90;99.90;;;;;;4993349;28;20033;-71
2023/01/26 00:54:18;;;;;;;9.60;4.30;;;2.00;99.90;;;;;;4992133;28;20121;-71
2023/01/26 00:56:44;;;;;;;10.02;4.53;;;2.00;99.90;;;;;;4993664;28;20029;-71
2023/01/26 00:59:09;;;;;;;10.63;4.32;;;2.00;99.90;;;;;;4996369;28;20030;-71
2023/01/26 01:01:35;;;;;;;9.35;4.18;;;2.00;99.90;;;;;;4995915;28;20026;-71
2023/01/26 01:04:00;;;;;;;8.95;4.28;;;2.00;99.90;;;;;;4995462;28;20088;-71
2023/01/26 01:06:26;;;;;;;13.02;4.18;;;2.00;99.90;;;;;;4995523;28;20036;-71
2023/01/26 01:08:51;;;;;;;12.43;4.57;;;2.10;99.90;;;;;;4995514;28;20121;-71
2023/01/26 01:11:17;;;;;;;8.70;4.07;;;2.00;99.90;;;;;;4996637;28;20034;-70
2023/01/26 01:13:42;;;;;;;12.88;4.53;;;2.00;99.90;;;;;;4995643;28;20030;-70
2023/01/26 01:16:10;;;;;;;9.82;4.72;;;1.90;99.90;;;;;;4996218;28;20109;-70
2023/01/26 01:18:36;;;;;;;8.82;4.38;;;1.90;99.90;;;;;;4995652;28;20022;-70
2023/01/26 01:21:16;;;;;;;9.93;4.30;;;1.90;99.90;;;;;;4996476;28;20500;-70
2023/01/26 01:23:42;;;;;;;11.52;4.95;;;1.80;99.90;;;;;;4996514;28;20022;-71
2023/01/26 01:26:09;;;;;;;10.13;5.07;;;1.70;99.90;;;;;;4996403;28;20076;-71
2023/01/26 01:28:36;;;;;;;10.70;5.38;;;1.80;99.90;;;;;;4995270;28;20037;-71
2023/01/26 01:31:11;;;;;;;11.25;5.30;;;1.80;99.90;;;;;;4995570;28;20054;-70
2023/01/26 01:33:37;;;;;;;13.63;5.47;;;1.80;99.90;;;;;;4995555;28;20022;-70
2023/01/26 01:36:05;;;;;;;13.68;5.65;;;1.80;99.90;;;;;;4995233;28;20076;-71
2023/01/26 01:38:31;;;;;;;13.90;5.32;;;1.80;99.90;;;;;;4994973;28;20026;-71
2023/01/26 01:40:57;;;;;;;15.80;5.88;;;1.80;99.90;;;;;;4994988;28;20030;-71
2023/01/26 01:43:24;;;;;;;17.27;5.97;;;1.90;99.90;;;;;;4995387;28;20402;-70
2023/01/26 01:45:51;;;;;;;11.95;5.20;;;1.90;99.90;;;;;;4995300;28;20026;-70
2023/01/26 01:48:35;;;;;;;18.05;6.72;;;1.90;99.90;;;;;;4996255;28;20039;-70
2023/01/26 01:51:12;;;;;;;13.00;6.05;;;1.90;99.90;;;;;;4996516;28;20030;-69
2023/01/26 01:53:41;;;;;;;14.60;6.30;;;1.80;99.90;;;;;;4996165;28;20026;-70
2023/01/26 01:56:13;;;;;;;15.70;7.07;;;1.80;99.90;;;;;;4995008;28;20027;-70
2023/01/26 01:58:41;;;;;;;15.70;6.63;;;1.80;99.90;;;;;;4994919;28;20019;-70
2023/01/26 02:01:08;;;;;;;16.35;6.68;;;1.90;99.90;;;;;;4994969;28;20026;-70
2023/01/26 02:03:35;;;;;;;15.70;6.72;;;1.90;99.90;;;;;;4995103;28;20037;-70
2023/01/26 02:06:29;;;;;;;14.80;7.03;;;1.90;99.90;;;;;;4995372;28;20030;-70
2023/01/26 02:08:56;;;;;;;16.77;6.80;;;1.90;99.90;;;;;;4994821;28;20061;-70
2023/01/26 02:14:45;;;;;;;14.20;6.15;;;2.00;99.90;;;;;;4996141;28;20386;-70
2023/01/26 02:17:10;;;;;;;18.63;6.80;;;2.00;99.90;;;;;;4994531;28;20026;-70
2023/01/26 02:19:39;;;;;;;17.67;7.28;;;1.90;99.90;;;;;;4994347;28;20053;-71
2023/01/26 02:22:11;;;;;;;18.00;7.28;;;1.90;99.90;;;;;;4994184;28;20026;-71
2023/01/26 02:24:39;;;;;;;16.20;7.15;;;1.90;99.90;;;;;;4995482;28;20037;-71
2023/01/26 02:27:04;;;;;;;18.90;7.38;;;1.90;99.90;;;;;;4995602;28;20094;-71
2023/01/26 02:29:30;;;;;;;15.32;6.90;;;1.90;99.90;;;;;;4994087;28;20117;-71
2023/01/26 02:31:56;;;;;;;17.40;7.68;;;1.90;99.90;;;;;;4994738;28;20129;-71
2023/01/26 02:37:43;;;;;;;17.20;7.78;;;1.80;99.90;;;;;;4995524;28;20037;-69
2023/01/26 02:40:41;;;;;;;17.35;7.30;;;1.60;99.90;;;;;;4994128;28;20030;-69
2023/01/26 02:43:07;;;;;;;13.30;6.32;;;1.70;99.90;;;;;;4938419;29;20043;-69
2023/01/26 02:45:33;;;;;;;14.20;6.70;;;1.70;99.90;;;;;;4938448;29;20094;-69
2023/01/26 02:48:03;;;;;;;16.38;6.80;;;1.70;99.90;;;;;;4954338;29;20106;-69
2023/01/26 02:50:29;;;;;;;15.63;5.70;;;1.70;99.90;;;;;;4938262;29;20023;-69
2023/01/26 02:52:55;;;;;;;15.02;6.47;;;1.70;99.90;;;;;;4938334;29;20122;-69
2023/01/26 02:55:24;;;;;;;11.48;5.03;;;1.80;99.90;;;;;;4938083;29;20115;-69
2023/01/26 02:57:52;;;;;;;12.10;6.00;;;1.80;99.90;;;;;;4954164;29;20111;-69
2023/01/26 03:00:26;;;;;;;12.70;5.72;;;1.70;99.90;;;;;;4954258;29;20039;-70
2023/01/26 03:02:54;;;;;;;12.55;5.68;;;1.70;99.90;;;;;;4954045;29;20041;-70
2023/01/26 03:05:20;;;;;;;13.60;6.13;;;1.70;99.90;;;;;;4937770;29;20043;-69
2023/01/26 03:07:46;;;;;;;12.77;5.72;;;1.70;99.90;;;;;;4954693;29;20063;-69
2023/01/26 03:10:12;;;;;;;12.38;5.55;;;1.70;99.90;;;;;;4938407;29;20066;-70
2023/01/26 03:12:38;;;;;;;12.07;5.50;;;1.70;99.90;;;;;;4954361;29;20031;-70
2023/01/26 03:17:49;;;;;;;12.35;5.45;;;1.70;99.90;;;;;;4960551;28;20040;-70
2023/01/26 03:28:26;;;;;;;13.02;4.93;;;1.70;99.90;;;;;;4995163;28;20117;-70
2023/01/26 03:30:54;;;;;;;12.73;5.65;;;1.60;99.90;;;;;;4993618;28;20058;-69
2023/01/26 03:33:20;;;;;;;10.55;5.70;;;1.60;99.90;;;;;;4994636;28;20050;-69
2023/01/26 03:35:46;;;;;;;12.20;6.13;;;1.50;99.90;;;;;;4993707;28;20022;-70
2023/01/26 03:38:12;;;;;;;15.25;6.65;;;1.50;99.90;;;;;;4993216;28;20109;-71
2023/01/26 03:57:03;;;;;;;16.02;7.13;;;1.70;99.90;;;;;;4994334;28;20077;-71
2023/01/26 03:59:36;;;;;;;18.42;7.43;;;1.60;99.90;;;;;;4992997;28;20030;-71
2023/01/26 04:10:17;;;;;;;13.50;6.72;;;1.70;99.90;;;;;;4994042;28;20064;-70
2023/01/26 04:12:42;;;;;;;14.85;6.40;;;1.70;99.90;;;;;;4993848;28;20058;-70
2023/01/26 04:23:20;;;;;;;19.88;7.65;;;1.70;99.90;;;;;;4994245;28;20165;-71
2023/01/26 04:25:47;;;;;;;15.00;6.65;;;1.70;99.90;;;;;;4992507;28;20094;-71
2023/01/26 04:28:13;;;;;;;16.38;6.95;;;1.60;99.90;;;;;;4992712;28;20026;-71
2023/01/26 04:30:38;;;;;;;18.67;6.70;;;1.50;99.90;;;;;;4992462;28;20037;-71
2023/01/26 04:33:04;;;;;;;15.65;7.97;;;1.50;99.90;;;;;;4993667;28;20026;-70
2023/01/26 04:35:29;;;;;;;12.48;6.05;;;1.50;99.90;;;;;;4996453;28;20030;-71
2023/01/26 04:37:55;;;;;;;16.80;7.22;;;1.50;99.90;;;;;;4996666;28;20018;-71
2023/01/26 04:40:20;;;;;;;14.90;7.10;;;1.50;99.90;;;;;;4997300;28;20050;-71
2023/01/26 04:42:46;;;;;;;20.45;7.88;;;1.50;99.90;;;;;;4996589;28;20030;-71
2023/01/26 04:45:11;;;;;;;19.73;7.75;;;1.40;99.90;;;;;;4996176;28;20436;-71
2023/01/26 04:47:37;;;;;;;14.75;7.07;;;1.50;99.90;;;;;;4995989;28;20023;-70
2023/01/26 04:50:03;;;;;;;14.75;6.85;;;1.60;99.90;;;;;;4997013;28;20482;-71
2023/01/26 04:52:28;;;;;;;17.92;7.65;;;1.60;99.90;;;;;;4995849;28;20109;-70
2023/01/26 04:54:54;;;;;;;18.17;7.97;;;1.60;99.90;;;;;;4997340;28;20057;-71
2023/01/26 04:57:20;;;;;;;13.18;7.15;;;1.50;99.90;;;;;;4995728;28;20054;-70
2023/01/26 04:59:45;;;;;;;16.20;7.55;;;1.40;99.90;;;;;;4995876;28;20022;-71
2023/01/26 05:02:11;;;;;;;15.60;7.07;;;1.50;99.90;;;;;;4995740;28;20023;-71
2023/01/26 05:04:36;;;;;;;16.15;7.07;;;1.40;99.90;;;;;;4995460;28;20065;-70
2023/01/26 05:07:02;;;;;;;13.75;6.22;;;1.50;99.90;;;;;;4995885;28;20019;-70
2023/01/26 05:09:27;;;;;;;14.90;7.13;;;1.40;99.90;;;;;;4996680;28;20023;-70
2023/01/26 05:11:53;;;;;;;15.75;6.78;;;1.50;99.90;;;;;;4996600;28;20402;-70
2023/01/26 05:14:18;;;;;;;14.07;6.03;;;1.50;99.90;;;;;;4996682;28;20097;-70
2023/01/26 05:16:44;;;;;;;15.15;6.40;;;1.40;99.90;;;;;;4995755;28;20041;-70
2023/01/26 05:19:10;;;;;;;13.27;6.07;;;1.50;99.90;;;;;;4995445;28;20038;-71
2023/01/26 05:21:35;;;;;;;10.75;5.60;;;1.50;99.90;;;;;;4995665;28;20058;-71
2023/01/26 05:24:01;;;;;;;17.48;5.75;;;1.40;99.90;;;;;;4995142;28;20114;-70
2023/01/26 05:26:26;;;;;;;12.57;6.40;;;1.50;99.90;;;;;;4995302;28;20113;-70
2023/01/26 05:28:52;;;;;;;13.27;6.10;;;1.50;99.90;;;;;;4996139;28;20026;-71
2023/01/26 05:31:17;;;;;;;11.32;6.05;;;1.50;99.90;;;;;;4995934;28;20421;-71
2023/01/26 05:33:43;;;;;;;13.10;5.85;;;1.50;99.90;;;;;;4996438;28;20022;-71
2023/01/26 05:36:08;;;;;;;12.63;5.45;;;1.60;99.90;;;;;;4996565;28;20030;-71
2023/01/26 05:38:34;;;;;;;12.68;5.95;;;1.50;99.90;;;;;;4996469;28;20030;-70
2023/01/26 05:40:59;;;;;;;13.63;6.45;;;1.50;99.90;;;;;;4994975;28;20023;-71
2023/01/26 05:43:25;;;;;;;10.10;5.15;;;1.50;99.90;;;;;;4995858;28;20027;-70
2023/01/26 05:45:50;;;;;;;14.93;5.63;;;1.40;99.90;;;;;;4995051;28;20022;-70
2023/01/26 05:48:16;;;;;;;11.65;5.82;;;1.30;99.90;;;;;;4994893;28;20034;-70
2023/01/26 05:50:42;;;;;;;10.45;5.30;;;1.30;99.90;;;;;;4996387;28;20032;-70
2023/01/26 05:53:07;;;;;;;14.35;5.80;;;1.40;99.90;;;;;;4995564;28;20027;-70
2023/01/26 05:55:34;;;;;;;13.70;5.93;;;1.40;99.90;;;;;;4995580;28;20105;-70
2023/01/26 05:57:59;;;;;;;11.73;5.60;;;1.40;99.90;;;;;;4995097;28;20034;-70
2023/01/26 06:00:25;;;;;;;10.60;5.25;;;1.50;99.90;;;;;;4995249;28;20031;-70
2023/01/26 06:02:51;;;;;;;14.27;6.60;;;1.30;99.90;;;;;;4996613;28;20065;-70
2023/01/26 06:05:16;;;;;;;12.73;5.55;;;1.30;99.90;;;;;;4996265;28;20405;-71
2023/01/26 06:07:42;;;;;;;12.35;6.38;;;1.30;99.90;;;;;;4994573;28;20031;-71
2023/01/26 06:10:08;;;;;;;13.35;5.70;;;1.20;99.90;;;;;;4995654;28;20081;-71
2023/01/26 06:12:34;;;;;;;12.10;5.03;;;1.30;99.90;;;;;;4995671;28;20034;-71
2023/01/26 06:15:04;;;;;;;12.07;5.82;;;1.40;99.90;;;;;;4994363;28;20018;-71
2023/01/26 06:17:30;;;;;;;12.82;5.40;;;1.40;99.90;;;;;;4995602;28;20460;-71
2023/01/26 06:19:56;;;;;;;12.25;5.90;;;1.30;99.90;;;;;;4994544;28;20023;-71
2023/01/26 06:22:21;;;;;;;13.00;4.95;;;1.20;99.90;;;;;;4994576;28;20049;-71
2023/01/26 06:24:47;;;;;;;9.98;5.35;;;1.20;99.90;;;;;;4995400;28;20022;-71
2023/01/26 06:27:15;;;;;;;10.85;4.57;;;1.20;99.90;;;;;;4995306;28;20027;-71
2023/01/26 06:29:41;;;;;;;8.27;5.32;;;1.20;99.90;;;;;;4995340;28;20081;-71
2023/01/26 06:32:08;;;;;;;8.77;4.47;;;1.10;99.90;;;;;;4995121;28;20030;-71
2023/01/26 06:34:34;;;;;;;11.05;5.10;;;1.10;99.90;;;;;;4994702;28;20068;-71
2023/01/26 06:36:59;;;;;;;11.82;5.57;;;1.10;99.90;;;;;;4994219;28;20019;-71
2023/01/26 06:39:25;;;;;;;10.65;4.57;;;1.10;99.90;;;;;;4993920;28;20025;-71
2023/01/26 06:41:50;;;;;;;8.00;4.80;;;1.10;99.90;;;;;;4994158;28;20022;-71
2023/01/26 06:44:16;;;;;;;11.48;5.32;;;1.10;99.90;;;;;;4993647;28;20030;-71
2023/01/26 06:46:41;;;;;;;8.23;4.72;;;1.10;99.90;;;;;;5010127;28;20018;-70
2023/01/26 06:49:08;;;;;;;10.95;4.85;;;1.10;99.90;;;;;;4993773;28;20022;-71
2023/01/26 06:51:51;;;;;;;9.45;5.00;;;1.00;99.90;;;;;;4993586;28;20026;-70
2023/01/26 06:54:17;;;;;;;12.65;6.10;;;1.10;99.90;;;;;;4994907;28;20030;-71
2023/01/26 06:56:43;;;;;;;14.25;5.32;;;1.00;99.90;;;;;;4993030;28;20022;-71
2023/01/26 06:59:09;;;;;;;8.93;4.72;;;1.00;99.90;;;;;;4994785;28;20022;-71
2023/01/26 07:01:40;;;;;;;10.95;6.35;;;1.00;99.90;;;;;;4993515;28;20068;-71
2023/01/26 07:04:05;;;;;;;10.20;5.10;;;1.10;99.90;;;;;;4993438;28;20030;-71
2023/01/26 07:06:31;;;;;;;11.13;5.35;;;1.10;99.90;;;;;;4993424;28;20048;-71
2023/01/26 07:08:56;;;;;;;8.52;4.97;;;1.10;99.90;;;;;;4994971;28;20081;-71
2023/01/26 07:11:24;;;;;;;12.18;5.75;;;1.10;99.90;;;;;;4993472;28;20027;-71
2023/01/26 07:13:49;;;;;;;12.63;5.63;;;1.10;99.90;;;;;;4994034;28;20026;-70
2023/01/26 07:16:16;;;;;;;10.52;5.25;;;1.20;99.90;;;;;;4994721;28;20029;-71
2023/01/26 07:18:42;;;;;;;9.55;4.88;;;1.20;99.90;;;;;;4994944;28;20033;-71
2023/01/26 07:21:12;;;;;;;13.30;5.90;;;1.20;99.90;;;;;;4995010;28;20030;-71
2023/01/26 07:23:38;;;;;;;13.55;5.35;;;1.10;99.90;;;;;;4994113;28;20035;-71
2023/01/26 07:26:04;;;;;;;13.93;6.07;;;1.20;99.90;;;;;;4993331;28;20034;-71
2023/01/26 07:28:29;;;;;;;12.50;5.63;;;1.20;99.90;;;;;;4993592;28;20030;-71
2023/01/26 07:30:59;;;;;;;13.05;5.55;;;1.20;99.90;;;;;;4993055;28;20031;-71
2023/01/26 07:33:24;;;;;;;11.55;5.43;;;1.20;99.90;;;;;;4993377;28;20022;-70
2023/01/26 07:35:54;;;;;;;11.68;5.03;;;1.10;99.90;;;;;;4993591;28;20044;-70
2023/01/26 07:38:20;;;;;;;14.05;5.32;;;1.20;99.90;;;;;;4993070;28;20026;-70
2023/01/26 07:40:45;;;;;;;12.63;5.35;;;1.10;99.90;;;;;;4993140;28;20033;-70
2023/01/26 07:43:13;;;;;;;13.98;5.40;;;1.20;99.90;;;;;;4993210;28;20026;-70
2023/01/26 07:45:39;;;;;;;11.90;5.15;;;1.10;99.90;;;;;;4994380;28;20101;-70
2023/01/26 07:48:04;;;;;;;12.05;4.97;;;1.10;99.90;;;;;;4994513;28;20117;-70
2023/01/26 07:50:31;;;;;;;11.85;5.25;;;1.00;99.90;;;;;;4994325;28;20034;-70
2023/01/26 07:52:59;;;;;;;10.32;4.30;;;1.00;99.90;;;;;;4994010;28;20046;-70
2023/01/26 07:55:25;;;;;;;17.08;5.72;;;1.00;99.90;;;;;;4992969;28;20030;-70
2023/01/26 07:57:50;;;;;;;17.58;5.75;;;1.00;99.90;;;;;;4993952;28;20019;-70
2023/01/26 08:00:17;;;;;;;10.65;4.90;;;1.00;99.90;;;;;;4992785;28;20029;-70
2023/01/26 08:02:43;;;;;;;12.90;5.75;;;1.00;99.90;;;;;;4992684;28;20096;-70
2023/01/26 08:05:08;;;;;;;15.23;5.10;;;1.00;99.90;;;;;;4992607;28;20389;-70
2023/01/26 08:07:34;;;;;;;14.77;5.47;;;0.90;99.90;;;;;;4996727;28;20026;-70
2023/01/26 08:09:59;;;;;;;14.10;5.95;;;0.90;99.90;;;;;;4997144;28;20018;-70
2023/01/26 08:12:25;;;;;;;15.35;6.18;;;0.90;99.90;;;;;;4997015;28;20109;-70
2023/01/26 08:14:51;;;;;;;17.70;6.88;;;1.00;99.90;;;;;;4996639;28;20116;-70
2023/01/26 08:17:17;;;;;;;16.63;7.20;;;0.80;99.90;;;;;;4997956;28;20101;-70
2023/01/26 08:19:44;;;;;;;15.75;6.85;;;0.70;99.90;;;;;;4998118;28;20025;-70
2023/01/26 08:22:09;;;;;;;20.67;7.38;;;0.70;99.90;;;;;;4997190;28;20022;-71
2023/01/26 08:24:35;;;;;;;20.27;7.15;;;0.70;99.90;;;;;;4997816;28;20060;-70
2023/01/26 08:27:00;;;;;;;15.65;6.00;;;0.80;99.90;;;;;;4996434;28;20027;-70
2023/01/26 08:29:26;;;;;;;16.40;6.95;;;0.90;99.90;;;;;;4997693;28;20030;-70
2023/01/26 08:31:52;;;;;;;16.10;6.82;;;1.00;99.90;;;;;;4996279;28;20035;-70
2023/01/26 08:34:20;;;;;;;17.88;7.53;;;1.00;99.90;;;;;;4996256;28;20026;-70
2023/01/26 08:36:46;;;;;;;17.05;7.13;;;1.00;99.90;;;;;;4996223;28;20033;-70
2023/01/26 08:39:11;;;;;;;16.00;7.05;;;0.60;99.90;;;;;;4996626;28;20022;-70
2023/01/26 08:41:38;;;;;;;16.50;6.55;;;0.70;99.90;;;;;;4996804;28;20069;-70
2023/01/26 08:44:03;;;;;;;13.80;6.82;;;0.70;99.90;;;;;;4997270;28;20022;-70
2023/01/26 08:46:29;;;;;;;16.27;6.70;;;0.40;99.90;;;;;;4998147;28;20053;-70
2023/01/26 08:48:55;;;;;;;14.73;7.00;;;0.50;99.90;;;;;;4997906;28;20421;-70
2023/01/26 08:51:20;;;;;;;13.05;5.80;;;0.50;99.90;;;;;;4996007;28;20026;-71
2023/01/26 08:53:46;;;;;;;16.10;6.43;;;0.50;99.90;;;;;;4996874;28;20026;-71
2023/01/26 08:56:12;;;;;;;17.73;6.43;;;0.40;99.90;;;;;;4996221;28;20034;-73
2023/01/26 08:58:37;;;;;;;13.85;5.93;;;0.50;99.90;;;;;;4995828;28;20023;-74
2023/01/26 09:01:09;;;;;;;20.65;7.50;;;0.60;99.90;;;;;;4997035;28;20041;-74
2023/01/26 09:03:35;;;;;;;17.65;7.60;;;0.80;99.90;;;;;;4995860;28;20113;-73
2023/01/26 09:06:03;;;;;;;19.02;6.90;;;0.80;99.90;;;;;;5012880;28;20117;-73
2023/01/26 09:08:29;;;;;;;18.52;7.18;;;0.80;99.90;;;;;;4996901;28;20077;-74
2023/01/26 09:10:55;;;;;;;16.83;6.10;;;0.60;99.90;;;;;;4995556;28;20034;-73
2023/01/26 09:13:21;;;;;;;12.07;5.57;;;0.40;99.90;;;;;;4996276;28;20019;-73
2023/01/26 09:15:47;;;;;;;12.98;6.15;;;0.50;99.90;;;;;;4995879;28;20049;-73
2023/01/26 09:18:12;;;;;;;15.98;6.75;;;0.70;99.90;;;;;;4995975;28;20053;-73
2023/01/26 09:20:38;;;;;;;18.15;6.65;;;0.80;99.90;;;;;;4997051;28;20022;-73
2023/01/26 09:23:04;;;;;;;19.20;7.90;;;0.80;99.90;;;;;;4995387;28;20057;-73
2023/01/26 09:25:30;;;;;;;19.48;7.85;;;0.90;99.90;;;;;;4995413;28;20085;-72
2023/01/26 09:27:56;;;;;;;18.58;7.50;;;1.00;99.90;;;;;;4996823;28;20030;-74
2023/01/26 09:30:23;;;;;;;16.83;7.32;;;0.90;99.90;;;;;;4995151;28;20061;-74
2023/01/26 09:32:50;;;;;;;21.17;7.43;;;0.90;99.90;;;;;;4995226;28;20050;-73
2023/01/26 09:35:15;;;;;;;14.90;6.43;;;1.00;99.90;;;;;;4995105;28;20054;-73
2023/01/26 09:37:44;;;;;;;15.88;6.78;;;0.90;99.90;;;;;;4995242;28;20544;-74
2023/01/26 09:40:41;;;;;;;16.85;6.15;;;0.80;99.90;;;;;;4996301;28;20046;-74
2023/01/26 09:43:26;;;;;;;18.70;7.45;;;0.70;99.90;;;;;;4995779;28;20032;-74
2023/01/26 09:46:40;;;;;;;17.08;7.07;;;0.50;99.90;;;;;;4996272;28;20086;-74
2023/01/26 09:49:20;;;;;;;18.65;6.70;;;0.40;99.90;;;;;;4955615;29;20035;-74
2023/01/26 09:52:30;;;;;;;17.50;6.63;;;0.50;99.90;;;;;;4939928;29;20070;-74
2023/01/26 09:55:02;;;;;;;23.63;7.75;;;0.60;99.90;;;;;;4863772;29;20032;-74
2023/01/26 09:57:49;;;;;;;20.77;7.07;;;0.50;99.90;;;;;;4879704;29;20037;-73
2023/01/26 10:00:49;;;;;;;21.55;7.47;;;0.50;99.90;;;;;;4864193;29;20037;-72
2023/01/26 10:03:45;;;;;;;19.90;7.72;;;0.70;99.90;;;;;;4842456;29;20099;-75
2023/01/26 10:06:30;;;;;;;20.58;7.57;;;0.80;99.90;;;;;;4840078;29;20090;-73
2023/01/26 10:08:59;;;;;;;18.70;6.57;;;0.90;99.90;;;;;;4827065;29;20026;-73
2023/01/26 10:11:42;;;;;;;21.35;8.82;;;1.10;99.90;;;;;;4826947;29;20069;-74
2023/01/26 10:14:35;;;;;;;23.95;7.60;;;1.20;99.90;;;;;;4823923;29;20040;-72
2023/01/26 10:17:04;;;;;;;20.50;7.25;;;1.50;99.90;;;;;;4808855;29;20121;-72
2023/01/26 10:19:38;;;;;;;19.27;6.63;;;1.50;99.90;;;;;;4808563;29;20483;-72
2023/01/26 10:22:13;;;;;;;19.33;7.65;;;1.60;99.90;;;;;;4826690;29;20037;-72
2023/01/26 10:24:38;;;;;;;19.30;7.15;;;1.50;99.90;;;;;;4868461;29;20045;-72
2023/01/26 10:27:12;;;;;;;22.02;7.97;;;1.60;99.90;;;;;;4935524;29;20051;-72
2023/01/26 10:29:38;;;;;;;22.67;8.55;;;1.70;99.90;;;;;;4935317;29;20119;-73
2023/01/26 10:32:04;;;;;;;21.45;7.88;;;1.60;99.90;;;;;;4934799;29;20111;-72
2023/01/26 10:34:31;;;;;;;27.55;8.07;;;1.60;99.90;;;;;;4919408;29;20023;-72
2023/01/26 10:37:21;;;;;;;22.67;7.30;;;1.80;99.90;;;;;;4935460;29;20028;-72
2023/01/26 10:40:09;;;;;;;24.00;8.05;;;1.60;99.90;;;;;;4971995;28;20031;-72
2023/01/26 10:42:36;;;;;;;20.13;8.60;;;1.60;99.90;;;;;;4974555;28;20478;-73
2023/01/26 10:45:24;;;;;;;25.40;8.50;;;1.60;99.90;;;;;;4974378;28;20371;-73
2023/01/26 10:48:19;;;;;;;23.90;9.20;;;1.60;99.90;;;;;;4975758;28;20033;-73
2023/01/26 10:50:47;;;;;;;23.55;8.40;;;1.60;99.90;;;;;;4975646;28;20042;-73
2023/01/26 10:53:24;;;;;;;22.45;8.10;;;1.50;99.90;;;;;;4975135;28;20023;-73
2023/01/26 10:56:11;;;;;;;20.33;8.18;;;1.50;99.90;;;;;;4974370;28;20083;-73
2023/01/26 10:58:45;;;;;;;26.20;9.68;;;1.50;99.90;;;;;;4975800;28;20033;-73
2023/01/26 11:01:14;;;;;;;21.25;8.13;;;1.60;99.90;;;;;;4975760;28;20162;-73
2023/01/26 11:03:40;;;;;;;27.00;8.63;;;1.70;99.90;;;;;;4974020;28;20030;-73
2023/01/26 11:06:07;;;;;;;24.00;9.55;;;1.70;99.90;;;;;;4974027;28;20041;-73
2023/01/26 11:08:38;;;;;;;27.75;8.85;;;1.70;99.90;;;;;;4974079;28;20121;-72
2023/01/26 11:11:09;;;;;;;25.75;9.73;;;1.70;99.90;;;;;;4973954;28;20446;-72
2023/01/26 11:13:35;;;;;;;26.13;9.32;;;1.80;99.90;;;;;;4975145;28;20110;-72
2023/01/26 11:16:23;;;;;;;22.58;8.70;;;1.90;99.90;;;;;;4975154;28;20038;-72
2023/01/26 11:18:57;;;;;;;24.05;8.15;;;2.00;99.90;;;;;;4974358;28;20077;-72
2023/01/26 11:21:22;;;;;;;22.42;8.18;;;1.90;99.90;;;;;;4974254;28;20031;-72
2023/01/26 11:24:12;;;;;;;28.42;9.63;;;1.90;99.90;;;;;;4973682;28;20038;-72
2023/01/26 11:26:44;;;;;;;26.77;9.52;;;1.90;99.90;;;;;;4975001;28;20121;-73
2023/01/26 11:30:01;;;;;;;20.27;7.60;;;1.90;99.90;;;;;;4973701;28;20031;-74
2023/01/26 11:32:45;;;;;;;23.92;8.32;;;1.80;99.90;;;;;;4973546;28;20034;-72
2023/01/26 11:35:34;;;;;;;23.35;8.00;;;1.70;99.90;;;;;;4973566;28;20409;-72
2023/01/26 11:38:12;;;;;;;22.65;7.68;;;1.70;99.90;;;;;;4975253;28;20085;-72
2023/01/26 11:40:56;;;;;;;27.20;9.93;;;1.60;99.90;;;;;;4975155;28;20031;-72
2023/01/26 11:43:40;;;;;;;23.13;8.20;;;1.50;99.90;;;;;;4973374;28;20058;-72
2023/01/26 11:46:18;;;;;;;30.67;9.68;;;1.50;99.90;;;;;;4973486;28;20118;-72
2023/01/26 11:48:52;;;;;;;30.83;9.30;;;1.80;99.90;;;;;;4974928;28;20105;-72
2023/01/26 11:51:48;;;;;;;32.38;8.95;;;1.70;99.90;;;;;;4974888;28;20066;-72
2023/01/26 11:54:21;;;;;;;24.70;8.65;;;1.70;99.90;;;;;;4944946;28;20047;-72
2023/01/26 11:56:50;;;;;;;24.17;8.55;;;1.60;99.90;;;;;;4974638;28;20023;-72
2023/01/26 11:59:37;;;;;;;25.30;9.13;;;1.70;99.90;;;;;;4973280;28;20023;-72
2023/01/26 12:02:32;;;;;;;28.15;9.25;;;1.90;99.90;;;;;;4974875;28;20371;-72
2023/01/26 12:05:01;;;;;;;25.42;8.50;;;2.00;99.90;;;;;;4973765;28;20034;-72
2023/01/26 12:07:50;;;;;;;28.88;8.77;;;2.10;99.90;;;;;;4974546;28;20034;-72
2023/01/26 12:10:18;;;;;;;26.40;8.27;;;2.10;99.90;;;;;;5007634;28;20081;-72
2023/01/26 12:12:52;;;;;;;24.98;7.63;;;2.20;99.90;;;;;;4993808;28;20019;-72
2023/01/26 12:15:21;;;;;;;21.02;7.40;;;2.20;99.90;;;;;;4993883;28;20026;-72
2023/01/26 12:18:02;;;;;;;27.10;8.35;;;2.00;99.90;;;;;;4993763;28;20023;-72
2023/01/26 12:20:39;;;;;;;29.35;9.90;;;1.70;99.90;;;;;;4992639;28;20022;-72
2023/01/26 12:23:07;;;;;;;21.67;7.95;;;1.60;99.90;;;;;;4993663;28;20033;-72
2023/01/26 12:26:11;;;;;;;22.40;9.20;;;1.80;99.90;;;;;;4992676;28;20022;-72
2023/01/26 12:28:47;;;;;;;22.70;8.25;;;1.90;99.90;;;;;;4992535;28;20088;-72
2023/01/26 12:31:25;;;;;;;31.95;8.38;;;2.10;99.90;;;;;;4992498;28;20026;-72
2023/01/26 12:33:54;;;;;;;22.40;7.57;;;2.00;99.90;;;;;;4992384;28;20044;-72
2023/01/26 12:36:38;;;;;;;21.63;8.85;;;2.00;99.90;;;;;;4993271;28;20041;-72
2023/01/26 12:39:27;;;;;;;25.75;8.93;;;1.80;99.90;;;;;;4993730;28;20475;-72
2023/01/26 12:42:28;;;;;;;25.90;7.70;;;1.90;99.90;;;;;;4993683;28;20022;-72
2023/01/26 12:45:00;;;;;;;23.33;7.50;;;2.00;99.90;;;;;;4992392;28;20133;-72
2023/01/26 12:47:38;;;;;;;26.25;9.55;;;2.20;99.90;;;;;;4992248;28;20092;-72
2023/01/26 12:50:34;;;;;;;24.15;9.48;;;2.00;99.90;;;;;;4992318;28;20030;-72
2023/01/26 12:53:28;;;;;;;23.83;7.90;;;2.00;99.90;;;;;;4993517;28;20034;-72
2023/01/26 12:56:12;;;;;;;25.15;8.57;;;2.20;99.90;;;;;;4995994;28;20038;-72
2023/01/26 12:58:41;;;;;;;28.83;8.18;;;2.30;99.90;;;;;;4996103;28;20030;-73
2023/01/26 13:01:13;;;;;;;27.85;8.27;;;2.20;99.90;;;;;;4997445;28;20025;-73
2023/01/26 13:03:56;;;;;;;24.20;8.88;;;2.10;99.90;;;;;;4997469;28;20037;-72
2023/01/26 13:06:24;;;;;;;34.33;9.68;;;2.00;99.90;;;;;;4995652;28;20030;-72
2023/01/26 13:08:56;;;;;;;29.55;9.38;;;2.10;99.90;;;;;;4995715;28;20049;-72
2023/01/26 13:11:42;;;;;;;27.42;9.35;;;2.00;99.90;;;;;;4997174;28;20032;-72
2023/01/26 13:14:31;;;;;;;28.50;9.05;;;2.10;99.90;;;;;;4996726;28;20033;-72
2023/01/26 13:17:17;;;;;;;28.58;9.68;;;2.20;99.90;;;;;;4995760;28;20057;-72
2023/01/26 13:19:43;;;;;;;24.13;8.10;;;2.30;99.90;;;;;;4996493;28;20030;-72
2023/01/26 13:22:18;;;;;;;25.30;9.15;;;2.20;99.90;;;;;;4996678;28;20026;-72
2023/01/26 13:25:16;;;;;;;32.25;9.68;;;2.20;99.90;;;;;;4995491;28;20029;-72
2023/01/26 13:27:56;;;;;;;32.70;9.40;;;2.10;99.90;;;;;;4996221;28;20109;-72
2023/01/26 13:30:22;;;;;;;26.95;9.88;;;2.20;99.90;;;;;;4996788;28;20030;-73
2023/01/26 13:32:48;;;;;;;27.90;10.02;;;2.10;99.90;;;;;;4996415;28;20026;-72
2023/01/26 13:35:17;;;;;;;29.38;9.38;;;2.20;99.90;;;;;;4995153;28;20478;-72
2023/01/26 13:37:55;;;;;;;33.78;8.95;;;2.10;99.90;;;;;;4996362;28;20026;-72
2023/01/26 13:40:30;;;;;;;29.95;9.55;;;2.10;99.90;;;;;;4995712;28;20113;-72
2023/01/26 13:43:00;;;;;;;26.38;9.90;;;2.20;99.90;;;;;;4996464;28;20018;-72
2023/01/26 13:45:53;;;;;;;27.95;9.25;;;2.20;99.90;;;;;;5011413;28;20065;-72
2023/01/26 13:48:50;;;;;;;30.17;9.75;;;2.40;99.90;;;;;;4996267;28;20073;-72
2023/01/26 13:51:30;;;;;;;26.42;8.68;;;2.50;99.90;;;;;;4994846;28;20034;-72
2023/01/26 13:54:04;;;;;;;29.85;9.25;;;2.50;99.90;;;;;;4996054;28;20025;-72
2023/01/26 13:56:36;;;;;;;33.00;9.07;;;2.40;99.90;;;;;;4995507;28;20105;-72